Time;durP1;ratioP1;P1;durP2;ratioP2;P2;SDS_P1;SDS_P2;PMS_P1;PMS_P2;Temp;Humidity;BMP_temperature;BMP_pressure;BME280_temperature;BME280_humidity;BME280_pressure;Samples;Min_cycle;Max_cycle;Signal;HPM_P1;HPM_P2
2023/01/24 00:02:37;;;;;;;12.05;10.75;;;;;;;3.00;74.06;101952.16;10312797;28;20098;-66
2023/01/24 00:07:40;;;;;;;13.07;11.55;;;;;;;3.10;73.83;101955.47;10309419;28;20143;-66
2023/01/24 00:12:41;;;;;;;12.23;10.40;;;;;;;2.95;73.61;101938.25;10315548;28;20066;-65
2023/01/24 00:17:43;;;;;;;12.68;10.90;;;;;;;3.03;73.50;101940.72;10318410;28;20342;-66
2023/01/24 00:22:44;;;;;;;12.40;10.57;;;;;;;3.00;73.67;101953.06;10310165;28;20613;-66
2023/01/24 00:27:46;;;;;;;12.55;10.93;;;;;;;3.04;73.65;101943.31;10314138;28;20077;-68
2023/01/24 00:32:47;;;;;;;12.32;10.50;;;;;;;2.97;74.25;101945.22;10321761;28;21288;-68
2023/01/24 00:37:48;;;;;;;13.02;10.75;;;;;;;3.02;73.81;101939.84;10322068;28;20074;-66
2023/01/24 00:42:51;;;;;;;13.73;11.10;;;;;;;3.07;73.68;101948.50;10320294;28;20168;-66
2023/01/24 00:47:52;;;;;;;13.63;10.45;;;;;;;3.13;73.50;101958.03;10321020;28;20050;-66
2023/01/24 00:52:54;;;;;;;14.27;10.98;;;;;;;2.96;73.40;101940.00;10319715;28;20406;-66
2023/01/24 00:57:56;;;;;;;13.15;10.63;;;;;;;2.96;73.79;101958.41;10320190;28;20568;-67
2023/01/24 01:02:57;;;;;;;15.10;11.25;;;;;;;2.87;73.67;101950.69;10318574;28;20304;-66
2023/01/24 01:07:58;;;;;;;13.63;11.00;;;;;;;3.00;74.04;101975.84;10320729;28;20102;-67
2023/01/24 01:13:00;;;;;;;12.55;10.65;;;;;;;2.91;73.98;101963.78;10316159;28;20052;-65
2023/01/24 01:18:01;;;;;;;15.30;11.05;;;;;;;2.87;73.92;101967.34;10318243;28;20056;-65
2023/01/24 01:23:03;;;;;;;14.00;10.98;;;;;;;2.81;74.16;101976.22;10315515;28;20057;-66
2023/01/24 01:28:04;;;;;;;14.10;11.30;;;;;;;2.87;74.31;101987.50;10331411;28;20561;-67
2023/01/24 01:33:05;;;;;;;14.32;10.52;;;;;;;2.86;74.44;101988.44;10318505;28;20042;-65
2023/01/24 01:38:07;;;;;;;13.57;11.30;;;;;;;2.72;75.15;101979.06;10318295;28;20491;-67
2023/01/24 01:43:20;;;;;;;14.48;11.10;;;;;;;2.70;74.93;101970.31;10313645;28;20070;-65
2023/01/24 01:48:28;;;;;;;11.77;10.55;;;;;;;2.77;75.13;101982.44;10318029;28;20081;-64
2023/01/24 01:53:35;;;;;;;14.15;10.98;;;;;;;2.72;74.84;101972.91;10320438;28;20148;-66
2023/01/24 01:58:38;;;;;;;16.63;12.70;;;;;;;2.75;74.51;101979.00;10319315;28;20372;-65
2023/01/24 02:03:47;;;;;;;12.93;10.85;;;;;;;2.73;74.93;101979.91;10315846;28;20042;-65
2023/01/24 02:08:51;;;;;;;14.25;12.45;;;;;;;2.75;74.56;101989.50;10311528;28;20235;-65
2023/01/24 02:16:02;;;;;;;14.32;11.52;;;;;;;2.69;75.04;101981.75;10316277;28;21299;-65
2023/01/24 02:19:29;;;;;;;13.95;11.02;;;;;;;2.73;74.81;101991.31;10310278;28;20128;-65
2023/01/24 02:24:37;;;;;;;18.75;14.25;;;;;;;2.65;74.83;101987.97;10329551;28;20396;-66
2023/01/24 02:29:39;;;;;;;15.10;11.90;;;;;;;2.74;74.53;101997.44;10317533;28;20520;-65
2023/01/24 02:34:40;;;;;;;15.90;12.18;;;;;;;2.83;74.73;102003.34;10313423;28;20134;-65
2023/01/24 02:39:48;;;;;;;15.45;12.05;;;;;;;2.86;74.40;102001.59;10331016;28;20056;-66
2023/01/24 02:45:01;;;;;;;16.33;13.13;;;;;;;2.87;74.47;102005.94;10313805;28;20091;-68
2023/01/24 02:50:03;;;;;;;15.95;12.02;;;;;;;2.83;74.46;102000.72;10312345;28;21149;-65
2023/01/24 02:55:05;;;;;;;17.00;12.25;;;;;;;2.80;74.20;101997.31;10308405;28;20329;-67
2023/01/24 03:00:08;;;;;;;16.27;12.68;;;;;;;2.87;74.11;102003.28;10311082;28;20038;-65
2023/01/24 03:05:10;;;;;;;15.13;10.93;;;;;;;2.89;74.01;101994.47;10311127;28;20066;-65
2023/01/24 03:10:17;;;;;;;14.23;11.70;;;;;;;2.86;74.04;101991.91;10311278;28;20493;-65
2023/01/24 03:36:38;;;;;;;12.52;10.18;;;;;;;3.36;72.73;102005.78;10313483;28;20149;-66
2023/01/24 03:41:40;;;;;;;14.40;11.13;;;;;;;3.16;72.07;101973.75;10315257;28;20101;-65
2023/01/24 03:46:44;;;;;;;12.40;10.52;;;;;;;3.39;72.07;102007.44;10311364;28;20144;-66
2023/01/24 03:57:05;;;;;;;14.23;11.00;;;;;;;3.48;71.46;102012.53;10312408;28;20057;-66
2023/01/24 04:02:06;;;;;;;11.93;10.10;;;;;;;3.57;71.52;102023.75;10312443;28;20054;-67
2023/01/24 04:07:08;;;;;;;14.18;11.13;;;;;;;3.56;71.38;102019.38;10316232;28;20565;-66
2023/01/24 04:12:26;;;;;;;13.63;10.45;;;;;;;3.62;71.12;102029.75;10320886;28;20539;-64
2023/01/24 04:17:27;;;;;;;15.27;11.68;;;;;;;3.54;71.34;102033.44;10316867;28;20065;-64
2023/01/24 04:22:29;;;;;;;13.38;11.35;;;;;;;3.57;71.31;102021.97;10321214;28;20054;-66
2023/01/24 04:27:31;;;;;;;13.05;11.00;;;;;;;3.50;71.18;102015.13;10317892;28;20153;-69
2023/01/24 04:32:32;;;;;;;13.82;11.18;;;;;;;3.58;71.62;102017.59;10319480;28;20072;-65
2023/01/24 04:37:34;;;;;;;14.80;12.93;;;;;;;3.60;71.27;102005.22;10321645;28;20140;-68
2023/01/24 04:42:37;;;;;;;15.15;11.45;;;;;;;3.72;70.93;102012.84;10316918;28;20073;-66
2023/01/24 04:47:39;;;;;;;13.30;10.43;;;;;;;3.69;71.08;102010.28;10320334;28;20052;-66
2023/01/24 04:52:40;;;;;;;15.88;10.95;;;;;;;3.50;71.00;101984.38;10314961;28;20054;-65
2023/01/24 04:57:42;;;;;;;15.38;12.32;;;;;;;3.70;70.95;102018.13;10315355;28;20576;-65
2023/01/24 05:02:44;;;;;;;15.07;11.27;;;;;;;3.60;71.21;102013.13;10319573;28;20081;-66
2023/01/24 05:07:45;;;;;;;14.85;11.85;;;;;;;3.69;71.11;102020.81;10316395;28;20520;-67
2023/01/24 05:12:46;;;;;;;15.40;12.57;;;;;;;3.66;71.06;101990.16;10313716;28;20216;-65
2023/01/24 05:17:48;;;;;;;15.75;12.18;;;;;;;3.79;71.25;102021.47;10315779;28;20153;-67
2023/01/24 05:22:50;;;;;;;15.13;12.30;;;;;;;3.78;71.28;102015.31;10319168;28;20241;-67
2023/01/24 05:27:51;;;;;;;17.25;13.00;;;;;;;3.76;71.58;102017.13;10332159;28;20054;-66
2023/01/24 05:32:56;;;;;;;14.85;11.80;;;;;;;3.81;71.47;102009.13;10314529;28;20070;-65
2023/01/24 05:37:58;;;;;;;;;;;;;;;3.86;71.39;102018.66;10313508;28;20117;-65
2023/01/24 05:42:59;;;;;;;13.27;10.98;;;;;;;3.82;71.53;102017.00;10320197;28;19936;-66
2023/01/24 05:48:00;;;;;;;12.25;10.07;;;;;;;3.81;71.10;102009.13;10313424;28;20615;-65
2023/01/24 05:53:02;;;;;;;13.13;11.52;;;;;;;3.89;71.04;102023.84;10319896;28;20133;-66
2023/01/24 05:58:04;;;;;;;14.20;11.27;;;;;;;3.85;71.25;102022.19;10316809;28;20511;-67
2023/01/24 06:03:05;;;;;;;14.55;11.82;;;;;;;3.82;71.39;102022.25;10317539;28;20085;-66
2023/01/24 06:08:07;;;;;;;15.43;11.85;;;;;;;3.88;71.74;102047.59;10321740;28;20245;-66
2023/01/24 06:13:09;;;;;;;14.75;12.23;;;;;;;3.85;71.85;102048.53;10322572;28;20054;-65
2023/01/24 06:18:15;;;;;;;15.55;12.25;;;;;;;3.76;71.85;102051.38;10326652;28;20061;-65
2023/01/24 06:23:24;;;;;;;14.73;11.52;;;;;;;3.83;72.30;102066.16;10322251;28;20080;-66
2023/01/24 06:28:26;;;;;;;13.88;11.43;;;;;;;3.84;71.93;102078.44;10314233;28;20137;-64
2023/01/24 06:33:40;;;;;;;15.13;11.93;;;;;;;3.85;72.15;102080.16;10325807;28;20081;-65
2023/01/24 06:38:42;;;;;;;16.00;11.93;;;;;;;3.87;72.00;102088.91;10315202;28;20201;-65
2023/01/24 06:43:44;;;;;;;15.18;11.95;;;;;;;3.77;72.15;102071.56;10311229;28;20056;-68
2023/01/24 06:48:54;;;;;;;15.10;11.60;;;;;;;3.92;72.12;102087.91;10273292;27;20369;-48
2023/01/24 06:53:56;;;;;;;14.68;11.77;;;;;;;3.83;71.96;102063.50;10286895;28;20188;-48
2023/01/24 06:58:57;;;;;;;12.95;10.48;;;;;;;4.02;71.81;102097.31;10287048;28;20685;-48
2023/01/24 07:03:59;;;;;;;13.68;10.55;;;;;;;4.08;71.44;102105.09;10288314;28;20658;-48
2023/01/24 07:09:00;;;;;;;13.95;11.55;;;;;;;4.05;71.54;102105.16;10290938;28;20050;-49
2023/01/24 07:14:02;;;;;;;14.57;11.27;;;;;;;4.03;71.42;102112.25;10292324;28;20060;-48
2023/01/24 07:19:04;;;;;;;13.82;10.93;;;;;;;4.12;71.25;102112.03;10288995;28;20065;-49
2023/01/24 07:24:16;;;;;;;15.43;10.55;;;;;;;4.17;71.42;102112.78;10337007;28;20057;-49
2023/01/24 07:29:21;;;;;;;12.43;10.25;;;;;;;4.14;71.41;102120.75;10375099;28;20621;-49
2023/01/24 07:34:22;;;;;;;14.68;10.82;;;;;;;4.12;71.35;102119.06;10372481;28;20191;-49
2023/01/24 07:39:27;;;;;;;14.10;12.20;;;;;;;4.07;71.64;102113.91;10375112;28;20191;-47
2023/01/24 07:44:30;;;;;;;15.23;13.00;;;;;;;4.21;71.57;102134.66;10375440;28;20053;-48
2023/01/24 07:49:32;;;;;;;14.43;11.23;;;;;;;4.19;71.02;102131.22;10379682;28;20060;-48
2023/01/24 07:54:33;;;;;;;13.80;10.98;;;;;;;4.19;70.89;102137.34;10373460;28;21568;-48
2023/01/24 07:59:35;;;;;;;13.43;10.32;;;;;;;4.09;71.34;102143.72;10354343;28;20073;-48
2023/01/24 08:04:39;;;;;;;11.50;9.52;;;;;;;4.24;71.12;102145.13;10346545;28;20204;-48
2023/01/24 08:09:41;;;;;;;12.10;10.18;;;;;;;4.31;70.40;102157.28;10345646;28;20071;-48
2023/01/24 08:14:42;;;;;;;12.80;10.18;;;;;;;4.34;70.45;102158.94;10356145;28;20053;-49
2023/01/24 08:19:44;;;;;;;11.73;9.27;;;;;;;4.35;70.42;102152.78;10352850;28;20123;-48
2023/01/24 08:24:57;;;;;;;10.57;9.13;;;;;;;4.33;70.15;102160.72;10334217;28;20053;-47
2023/01/24 08:29:58;;;;;;;12.55;9.15;;;;;;;4.37;70.32;102161.53;10349300;28;20049;-47
2023/01/24 08:34:59;;;;;;;11.43;9.18;;;;;;;4.39;70.08;102170.28;10348082;28;20179;-47
2023/01/24 08:40:01;;;;;;;11.93;9.40;;;;;;;4.45;70.36;102164.00;10347614;28;20057;-47
2023/01/24 08:45:02;;;;;;;11.90;9.00;;;;;;;4.44;70.25;102178.94;10351133;28;20180;-47
2023/01/24 08:50:04;;;;;;;12.13;9.57;;;;;;;4.42;69.82;102173.69;10352723;28;20615;-48
2023/01/24 08:55:06;;;;;;;11.27;9.45;;;;;;;4.40;69.84;102177.28;10348454;28;20231;-48
2023/01/24 09:00:08;;;;;;;12.93;9.80;;;;;;;4.28;70.14;102152.09;10353557;28;20510;-47
2023/01/24 09:05:09;;;;;;;12.60;10.07;;;;;;;4.44;69.97;102178.94;10352806;28;20438;-49
2023/01/24 09:10:11;;;;;;;12.48;9.77;;;;;;;4.53;69.61;102183.97;10345919;28;20063;-47
2023/01/24 09:15:12;;;;;;;10.52;9.40;;;;;;;4.54;69.51;102185.72;10351429;28;20937;-47
2023/01/24 09:20:14;;;;;;;10.85;9.02;;;;;;;4.30;69.33;102154.69;10351937;28;20049;-48
2023/01/24 09:25:15;;;;;;;12.93;10.65;;;;;;;4.39;69.96;102192.22;10349686;28;20057;-47
2023/01/24 09:30:17;;;;;;;12.27;9.90;;;;;;;4.49;69.66;102197.28;10351868;28;21267;-47
2023/01/24 09:35:18;;;;;;;12.85;9.88;;;;;;;4.57;69.09;102196.19;10340541;28;20085;-47
2023/01/24 09:40:25;;;;;;;13.32;10.18;;;;;;;4.54;69.12;102190.13;10352797;28;20206;-47
2023/01/24 09:45:55;;;;;;;14.35;11.30;;;;;;;4.58;69.14;102197.94;10349913;28;20042;-47
2023/01/24 09:51:02;;;;;;;11.07;9.35;;;;;;;4.63;68.83;102211.00;10352618;28;20561;-47
2023/01/24 09:56:05;;;;;;;11.73;9.07;;;;;;;4.68;68.66;102202.97;10347703;28;20049;-47
2023/01/24 10:01:11;;;;;;;11.18;9.65;;;;;;;4.71;68.00;102208.19;10338115;28;20226;-46
2023/01/24 10:06:19;;;;;;;10.85;8.68;;;;;;;4.67;67.89;102211.78;10349617;28;20810;-46
2023/01/24 10:11:44;;;;;;;10.98;8.98;;;;;;;4.66;68.30;102204.81;10352282;28;20054;-47
2023/01/24 10:17:14;;;;;;;12.20;9.05;;;;;;;4.75;67.74;102212.47;10305603;28;20051;-47
2023/01/24 10:22:35;;;;;;;10.05;8.50;;;;;;;4.76;67.47;102209.81;10344042;28;20140;-47
2023/01/24 10:27:42;;;;;;;9.70;7.90;;;;;;;4.78;67.49;102199.22;10339103;28;20049;-48
2023/01/24 10:32:46;;;;;;;8.85;7.68;;;;;;;4.82;67.56;102195.59;10339475;28;20514;-54
2023/01/24 10:37:55;;;;;;;10.40;8.57;;;;;;;4.77;67.44;102193.09;10344682;28;20060;-48
2023/01/24 10:43:04;;;;;;;11.18;9.27;;;;;;;4.90;67.02;102198.03;10342397;28;20405;-47
2023/01/24 10:48:35;;;;;;;7.72;6.93;;;;;;;4.93;66.55;102208.50;10344889;28;20103;-47
2023/01/24 10:53:37;;;;;;;9.23;7.75;;;;;;;4.94;66.52;102195.28;10345160;28;20422;-47
2023/01/24 10:59:07;;;;;;;8.73;7.10;;;;;;;4.92;66.84;102194.47;10362001;28;20047;-47
2023/01/24 11:04:20;;;;;;;8.77;6.95;;;;;;;4.91;66.44;102184.81;10366119;28;20097;-47
2023/01/24 11:09:29;;;;;;;9.93;7.93;;;;;;;5.00;66.18;102193.38;10364766;28;21072;-48
2023/01/24 11:14:34;;;;;;;10.35;9.25;;;;;;;5.07;66.01;102189.66;10349963;28;20057;-46
2023/01/24 11:19:39;;;;;;;9.10;7.57;;;;;;;5.10;65.54;102189.59;10349687;28;20050;-47
2023/01/24 11:24:44;;;;;;;9.40;7.82;;;;;;;5.09;65.04;102183.44;10329923;28;20071;-47
2023/01/24 11:30:04;;;;;;;11.23;9.68;;;;;;;5.06;65.43;102185.28;10330915;28;20045;-47
2023/01/24 11:35:16;;;;;;;11.48;9.52;;;;;;;5.06;66.19;102182.66;10330707;28;20148;-47
2023/01/24 11:40:41;;;;;;;11.40;9.32;;;;;;;5.05;65.85;102171.22;10335041;28;20057;-49
2023/01/24 11:46:05;;;;;;;12.35;10.13;;;;;;;5.08;65.59;102170.28;10336201;28;20052;-48
2023/01/24 11:51:15;;;;;;;15.50;11.90;;;;;;;5.09;65.25;102162.34;10335686;28;20103;-48
2023/01/24 11:56:32;;;;;;;11.77;10.43;;;;;;;5.12;65.61;102156.97;10352260;28;20144;-47
2023/01/24 12:01:50;;;;;;;11.73;9.95;;;;;;;5.06;65.20;102157.13;10339792;28;20045;-47
2023/01/24 12:07:03;;;;;;;10.18;8.95;;;;;;;5.09;65.60;102151.78;10334700;28;20142;-48
2023/01/24 12:12:15;;;;;;;10.27;8.97;;;;;;;5.14;65.66;102149.00;10338743;28;20042;-47
2023/01/24 12:17:28;;;;;;;11.15;8.98;;;;;;;5.14;65.17;102139.31;10337942;28;20049;-46
2023/01/24 12:22:33;;;;;;;9.60;8.53;;;;;;;5.18;65.38;102128.66;10335627;28;20158;-48
2023/01/24 12:27:36;;;;;;;12.63;9.23;;;;;;;5.11;65.48;102133.25;10331890;28;20053;-49
2023/01/24 12:32:47;;;;;;;9.20;8.13;;;;;;;5.13;65.60;102127.03;10335066;28;20510;-55
2023/01/24 12:38:01;;;;;;;14.60;8.05;;;;;;;5.13;65.92;102131.41;10331628;28;20192;-48
2023/01/24 12:43:21;;;;;;;9.98;7.20;;;;;;;5.18;65.55;102137.47;10332865;28;20050;-48
2023/01/24 12:49:00;;;;;;;9.07;8.07;;;;;;;5.19;65.24;102130.41;10334805;28;20143;-50
2023/01/24 12:54:53;;;;;;;10.48;8.10;;;;;;;5.12;65.35;102125.28;10333202;28;20118;-47
2023/01/24 12:59:54;;;;;;;9.65;8.43;;;;;;;5.19;65.81;102131.25;10275563;28;20128;-47
2023/01/24 13:05:18;;;;;;;9.75;8.13;;;;;;;5.18;65.66;102124.25;10335236;28;20143;-47
2023/01/24 13:10:38;;;;;;;10.35;9.23;;;;;;;5.18;64.98;102126.91;10335197;28;20521;-51
2023/01/24 13:16:08;;;;;;;11.40;8.32;;;;;;;5.12;64.83;102106.81;10336306;28;20491;-49
2023/01/24 13:21:28;;;;;;;10.43;8.43;;;;;;;5.20;65.31;102121.56;10340178;28;20057;-48
2023/01/24 13:27:12;;;;;;;9.27;7.75;;;;;;;5.11;65.41;102120.06;10338368;28;20631;-49
2023/01/24 13:32:17;;;;;;;10.13;8.40;;;;;;;5.06;65.27;102108.75;10308963;28;20080;-50
2023/01/24 13:37:23;;;;;;;9.10;7.97;;;;;;;5.10;65.33;102116.56;10334074;28;20164;-49
2023/01/24 13:42:33;;;;;;;9.10;7.65;;;;;;;5.09;65.10;102108.69;10335570;28;20250;-50
2023/01/24 13:47:36;;;;;;;8.88;7.97;;;;;;;5.10;65.43;102113.03;10331082;28;20134;-49
2023/01/24 13:52:44;;;;;;;8.02;6.97;;;;;;;5.07;65.04;102110.47;10334619;28;20136;-49
2023/01/24 13:58:06;;;;;;;9.43;7.97;;;;;;;5.06;65.22;102101.72;10330086;28;20160;-49
2023/01/24 14:03:22;;;;;;;7.40;6.63;;;;;;;5.14;64.74;102106.75;10327950;28;20227;-49
2023/01/24 14:08:27;;;;;;;8.85;7.65;;;;;;;5.12;64.10;102112.09;10331594;28;20571;-49
2023/01/24 14:13:47;;;;;;;7.72;6.90;;;;;;;5.16;64.12;102120.78;10328456;28;20099;-49
2023/01/24 14:18:57;;;;;;;8.70;6.93;;;;;;;5.04;64.63;102105.28;10319868;28;20510;-49
2023/01/24 14:24:15;;;;;;;8.30;7.03;;;;;;;5.03;64.42;102132.59;10330946;28;20088;-49
2023/01/24 14:29:18;;;;;;;8.55;7.38;;;;;;;5.03;64.42;102122.03;10331000;28;20424;-50
2023/01/24 14:34:33;;;;;;;7.65;6.68;;;;;;;5.07;64.82;102131.59;10330970;28;20466;-49
2023/01/24 14:39:35;;;;;;;8.15;6.97;;;;;;;5.11;64.58;102127.97;10332866;28;21735;-50
2023/01/24 14:44:39;;;;;;;8.55;7.65;;;;;;;4.98;64.54;102102.81;10329299;28;20088;-49
2023/01/24 14:49:46;;;;;;;7.97;6.60;;;;;;;5.11;64.39;102122.69;10327935;28;20060;-49
2023/01/24 14:54:55;;;;;;;15.65;12.57;;;;;;;5.08;64.40;102133.34;10331612;28;20319;-50
2023/01/24 15:00:10;;;;;;;9.63;7.97;;;;;;;5.08;64.55;102130.69;10330633;28;20172;-48
2023/01/24 15:05:25;;;;;;;8.13;7.15;;;;;;;4.75;64.56;102104.31;10329382;28;20064;-49
2023/01/24 15:10:27;;;;;;;8.50;7.60;;;;;;;5.02;64.06;102122.94;10339331;28;20507;-50
2023/01/24 15:15:29;;;;;;;7.93;7.13;;;;;;;5.00;64.20;102122.09;10339425;28;20054;-51
2023/01/24 15:20:31;;;;;;;7.57;6.50;;;;;;;4.96;63.83;102109.00;10339280;28;20154;-49
2023/01/24 15:25:34;;;;;;;9.45;7.28;;;;;;;5.02;63.77;102121.16;10335488;28;20051;-50
2023/01/24 15:30:35;;;;;;;8.13;6.85;;;;;;;4.96;64.88;102119.56;10332777;28;20049;-50
2023/01/24 15:35:40;;;;;;;7.55;6.30;;;;;;;5.01;64.03;102132.63;10329423;28;20061;-49
2023/01/24 15:41:10;;;;;;;8.00;6.93;;;;;;;4.96;64.49;102123.97;10330591;28;20055;-49
2023/01/24 15:51:43;;;;;;;8.48;7.57;;;;;;;4.98;65.35;102116.88;10328829;28;20061;-48
2023/01/24 15:56:45;;;;;;;8.07;7.28;;;;;;;5.00;64.86;102124.75;10325324;28;20057;-48
2023/01/24 16:02:00;;;;;;;7.93;7.07;;;;;;;4.88;64.44;102120.66;10332322;28;20056;-49
2023/01/24 16:07:02;;;;;;;8.80;6.80;;;;;;;4.84;64.53;102116.41;10326409;28;20057;-55
2023/01/24 16:12:04;;;;;;;7.55;5.97;;;;;;;4.78;64.34;102120.06;10330284;28;20094;-50
2023/01/24 16:17:05;;;;;;;7.75;6.85;;;;;;;4.90;64.19;102143.47;10329001;28;20053;-50
2023/01/24 16:22:06;;;;;;;8.00;6.45;;;;;;;4.89;64.68;102143.53;10335150;28;20192;-50
2023/01/24 16:27:11;;;;;;;9.85;7.22;;;;;;;4.91;64.62;102144.38;10331443;28;20058;-49
2023/01/24 16:32:22;;;;;;;8.90;7.13;;;;;;;4.67;64.60;102108.91;10327143;28;20049;-49
2023/01/24 16:37:24;;;;;;;8.27;7.07;;;;;;;4.82;64.82;102140.19;10331071;28;20053;-50
2023/01/24 16:42:25;;;;;;;10.20;8.00;;;;;;;4.83;65.05;102133.97;10332567;28;20084;-49
2023/01/24 16:47:28;;;;;;;9.30;7.95;;;;;;;4.81;65.31;102135.81;10331271;28;20057;-49
2023/01/24 16:52:29;;;;;;;8.95;8.05;;;;;;;4.78;65.29;102135.88;10332663;28;20152;-50
2023/01/24 16:57:30;;;;;;;12.02;8.90;;;;;;;4.81;65.09;102141.09;10327997;28;20152;-50
2023/01/24 17:02:32;;;;;;;10.05;8.35;;;;;;;4.79;65.77;102137.63;10316743;28;20077;-49
2023/01/24 17:07:33;;;;;;;10.35;9.25;;;;;;;4.82;66.07;102153.38;10322021;28;20057;-50
2023/01/24 17:12:35;;;;;;;9.30;7.88;;;;;;;4.81;65.88;102146.34;10318114;28;20057;-50
2023/01/24 17:17:37;;;;;;;10.00;8.80;;;;;;;4.78;66.30;102142.03;10319153;28;20052;-49
2023/01/24 17:22:39;;;;;;;12.73;10.20;;;;;;;4.67;66.36;102116.81;10322811;28;20212;-50
2023/01/24 17:27:40;;;;;;;11.98;10.70;;;;;;;4.78;66.37;102141.16;10328044;28;20061;-50
2023/01/24 17:32:42;;;;;;;11.38;10.10;;;;;;;4.74;66.49;102145.66;10326028;28;20250;-52
2023/01/24 17:37:44;;;;;;;18.05;13.07;;;;;;;4.70;66.90;102141.38;10334916;28;20430;-50
2023/01/24 17:42:46;;;;;;;11.15;9.80;;;;;;;4.65;67.41;102156.44;10332744;28;20132;-50
2023/01/24 17:47:47;;;;;;;11.55;9.73;;;;;;;4.68;67.51;102155.50;10330624;28;21122;-51
2023/01/24 17:52:49;;;;;;;10.23;8.98;;;;;;;4.59;67.36;102140.75;10326373;28;20049;-48
2023/01/24 17:57:50;;;;;;;11.52;9.45;;;;;;;4.64;67.64;102151.19;10326539;28;20139;-48
2023/01/24 18:02:52;;;;;;;10.85;8.85;;;;;;;4.57;67.69;102146.06;10342775;28;20634;-49
2023/01/24 18:07:53;;;;;;;11.00;9.43;;;;;;;4.67;67.50;102159.03;10329265;28;20057;-48
2023/01/24 18:12:55;;;;;;;10.70;9.07;;;;;;;4.70;67.92;102156.31;10328316;28;20112;-50
2023/01/24 18:17:56;;;;;;;13.93;10.02;;;;;;;4.72;67.94;102155.38;10329351;28;20135;-50
2023/01/24 18:22:58;;;;;;;11.48;9.77;;;;;;;4.72;68.00;102159.78;10333381;28;20203;-48
2023/01/24 18:27:59;;;;;;;11.52;9.32;;;;;;;4.72;68.09;102157.16;10333249;28;20066;-48
2023/01/24 18:33:01;;;;;;;13.55;9.55;;;;;;;4.72;67.76;102149.25;10333007;28;20779;-49
2023/01/24 18:38:02;;;;;;;11.75;10.10;;;;;;;4.67;68.02;102164.31;10331778;28;20061;-53
2023/01/24 18:43:03;;;;;;;10.48;9.25;;;;;;;4.63;68.45;102160.03;10328519;28;20467;-49
2023/01/24 18:48:05;;;;;;;12.68;10.35;;;;;;;4.62;68.25;102145.09;10329654;28;20950;-50
2023/01/24 18:53:07;;;;;;;12.10;10.00;;;;;;;4.66;68.41;102152.03;10327820;28;20062;-49
2023/01/24 18:58:08;;;;;;;10.90;9.18;;;;;;;4.63;68.48;102138.94;10329655;28;20074;-49
2023/01/24 19:03:09;;;;;;;10.65;8.98;;;;;;;4.68;68.49;102142.31;10329823;28;20146;-49
2023/01/24 19:08:11;;;;;;;11.13;9.85;;;;;;;4.74;68.23;102142.16;10335182;28;20068;-50
2023/01/24 19:13:12;;;;;;;9.75;8.52;;;;;;;4.72;67.75;102149.25;10330040;28;20479;-54
2023/01/24 19:18:16;;;;;;;11.45;9.25;;;;;;;4.73;68.03;102145.72;10327503;28;20053;-50
2023/01/24 19:23:18;;;;;;;13.13;9.38;;;;;;;4.72;67.75;102136.06;10333827;28;20708;-50
2023/01/24 19:28:20;;;;;;;10.82;9.52;;;;;;;4.74;67.70;102134.22;10333275;28;20045;-49
2023/01/24 19:33:23;;;;;;;11.05;9.23;;;;;;;4.72;67.75;102136.06;10332138;28;20068;-51
2023/01/24 19:38:25;;;;;;;10.00;8.98;;;;;;;4.71;67.85;102134.31;10332073;28;20049;-49
2023/01/24 19:43:26;;;;;;;10.63;9.52;;;;;;;4.70;67.94;102133.47;10327421;28;20060;-50
2023/01/24 19:48:28;;;;;;;11.10;9.48;;;;;;;4.70;68.06;102137.84;10331434;28;20117;-50
2023/01/24 19:53:30;;;;;;;10.77;9.57;;;;;;;4.70;68.30;102148.41;10328269;28;20053;-49
2023/01/24 19:58:32;;;;;;;12.20;10.68;;;;;;;4.68;68.29;102144.94;10333215;28;20451;-49
2023/01/24 20:03:36;;;;;;;11.68;10.45;;;;;;;4.66;68.63;102141.50;10336382;28;20076;-53
2023/01/24 20:08:38;;;;;;;11.45;9.98;;;;;;;4.59;68.17;102120.53;10335720;28;20065;-49
2023/01/24 20:13:40;;;;;;;13.77;11.45;;;;;;;4.71;68.73;102135.16;10339422;28;20075;-49
2023/01/24 20:18:42;;;;;;;11.57;10.38;;;;;;;4.70;68.46;102148.41;10336445;28;20072;-49
2023/01/24 20:23:44;;;;;;;14.45;12.15;;;;;;;4.62;68.61;102156.50;10335908;28;20064;-50
2023/01/24 20:28:46;;;;;;;11.85;9.73;;;;;;;4.67;68.56;102144.09;10343676;28;20071;-50
2023/01/24 20:33:48;;;;;;;11.98;10.68;;;;;;;4.73;68.47;102145.72;10334090;28;20064;-50
2023/01/24 20:38:54;;;;;;;11.98;9.82;;;;;;;4.64;68.70;102153.84;10324504;28;20090;-50
2023/01/24 20:43:56;;;;;;;11.68;9.98;;;;;;;4.63;68.47;102152.97;10331634;28;20053;-50
2023/01/24 20:49:03;;;;;;;12.07;10.43;;;;;;;4.68;68.40;102152.84;10332686;28;20969;-49
2023/01/24 20:54:05;;;;;;;12.38;10.55;;;;;;;4.63;68.71;102150.34;10328184;28;20056;-50
2023/01/24 20:59:08;;;;;;;11.48;10.27;;;;;;;4.59;68.52;102151.31;10327208;28;20064;-50
2023/01/24 21:04:09;;;;;;;11.13;10.02;;;;;;;4.60;68.80;102150.41;10323988;28;20072;-49
2023/01/24 21:09:10;;;;;;;11.80;10.52;;;;;;;4.56;68.83;102144.38;10326466;28;20898;-49
2023/01/24 21:14:13;;;;;;;11.80;9.85;;;;;;;4.60;68.95;102142.50;10323694;28;20110;-49
2023/01/24 21:19:17;;;;;;;11.23;9.57;;;;;;;4.67;68.67;102143.19;10328798;28;20131;-51
2023/01/24 21:24:19;;;;;;;13.00;10.33;;;;;;;4.69;68.75;102144.03;10324319;28;21139;-49
2023/01/24 21:29:33;;;;;;;11.20;10.00;;;;;;;4.78;68.65;102141.16;10324005;28;20607;-49
2023/01/24 21:34:34;;;;;;;11.18;9.90;;;;;;;4.76;68.38;102140.34;10322868;28;20793;-53
2023/01/24 21:39:36;;;;;;;12.38;10.60;;;;;;;4.71;69.03;102139.59;10330000;28;20060;-50
2023/01/24 21:44:37;;;;;;;12.90;9.73;;;;;;;4.71;68.91;102144.88;10322513;28;20144;-49
2023/01/24 21:49:39;;;;;;;12.32;10.88;;;;;;;4.74;68.74;102148.31;10324298;28;20061;-50
2023/01/24 21:54:41;;;;;;;12.20;10.90;;;;;;;4.59;68.90;102127.56;10326956;28;20137;-48
2023/01/24 21:59:43;;;;;;;13.25;11.23;;;;;;;4.64;68.88;102148.56;10329527;28;20068;-49
2023/01/24 22:04:45;;;;;;;11.15;9.98;;;;;;;4.70;68.69;102141.38;10328774;28;20106;-48
2023/01/24 22:09:47;;;;;;;12.63;10.35;;;;;;;4.65;69.46;102137.97;10324467;28;20056;-49
2023/01/24 22:14:49;;;;;;;11.88;9.90;;;;;;;4.73;68.98;102133.38;10329850;28;20057;-50
2023/01/24 22:19:53;;;;;;;11.70;10.20;;;;;;;4.65;69.06;102129.19;10328165;28;20050;-49
2023/01/24 22:24:58;;;;;;;11.35;9.85;;;;;;;4.60;69.16;102127.53;10323077;28;20068;-50
2023/01/24 22:29:59;;;;;;;12.18;9.88;;;;;;;4.55;69.05;102118.88;10330618;28;20045;-49
2023/01/24 22:35:01;;;;;;;11.80;9.93;;;;;;;4.58;69.09;102118.81;10336747;28;20067;-49
2023/01/24 22:40:02;;;;;;;12.02;10.18;;;;;;;4.66;69.07;102123.03;10334700;28;20143;-50
2023/01/24 22:45:04;;;;;;;11.40;10.15;;;;;;;4.62;69.43;102114.31;10338545;28;20482;-50
2023/01/24 22:50:07;;;;;;;11.52;10.32;;;;;;;4.50;69.49;102104.94;10340105;28;20227;-50
2023/01/24 22:55:09;;;;;;;9.95;8.88;;;;;;;4.57;69.05;102111.78;10336789;28;20547;-49
2023/01/24 23:00:12;;;;;;;11.48;10.25;;;;;;;4.54;69.66;102101.31;10337253;28;20470;-49
2023/01/24 23:05:13;;;;;;;11.75;10.27;;;;;;;4.58;69.33;102118.81;10338320;28;20053;-49
2023/01/24 23:10:15;;;;;;;11.27;10.15;;;;;;;4.63;69.34;102113.41;10334915;28;20046;-49
2023/01/24 23:25:56;;;;;;;11.63;10.35;;;;;;;4.60;69.49;102102.94;10335577;28;20177;-50
2023/01/24 23:31:11;;;;;;;11.27;10.10;;;;;;;4.58;69.38;102088.94;10341796;28;20049;-49
2023/01/24 23:36:12;;;;;;;10.80;9.68;;;;;;;4.59;69.21;102088.00;10345748;28;20049;-50
2023/01/24 23:41:13;;;;;;;11.02;9.82;;;;;;;4.52;69.48;102089.06;10336148;28;20053;-50
2023/01/24 23:46:15;;;;;;;11.30;10.15;;;;;;;4.55;69.76;102075.81;10342647;28;20678;-50
2023/01/24 23:51:17;;;;;;;10.82;9.35;;;;;;;4.47;69.96;102078.63;10341699;28;20138;-50
2023/01/24 23:56:19;;;;;;;10.15;8.85;;;;;;;4.45;69.43;102064.63;10346369;28;20041;-50
